Terminal Aerodrome Forecast
Issued by NWS

Home | Current Version | Previous Version | Text Only | Print | Product List | Glossary On
Versions: 1 2 3 4 5 6 7 8 9 10 11 12 13 14 15 16 17 18
416
FTUS44 KLZK 310520
TAFLLQ
TAF
KLLQ 310520Z 3106/0106 VRB05KT P6SM VCTS SCT035CB BKN250
      TEMPO 3106/3108 5SM -TSRA BR BKN025CB
     FM310800 VRB03KT 5SM BR FEW010 SCT050 BKN250
      TEMPO 3109/3113 2SM BR FEW005 BKN020
     FM311500 12005KT P6SM BKN040 BKN250=

USA.gov is the U.S. government's official web portal to all federal, state and local government web resources and services.